Time;durP1;ratioP1;P1;durP2;ratioP2;P2;SDS_P1;SDS_P2;PMS_P1;PMS_P2;Temp;Humidity;BMP_temperature;BMP_pressure;BME280_temperature;BME280_humidity;BME280_pressure;Samples;Min_cycle;Max_cycle;Signal;HPM_P1;HPM_P2
2021/10/26 00:01:52;;;;;;;26.05;18.55;;;;;;;15.41;63.89;102757.53;5004728;28;102245;-48
2021/10/26 00:04:19;;;;;;;26.55;18.67;;;;;;;15.40;64.15;102758.63;4998887;28;103980;-47
2021/10/26 00:06:46;;;;;;;27.13;19.67;;;;;;;15.41;64.26;102763.00;5005532;28;103093;-48
2021/10/26 00:09:12;;;;;;;32.42;21.58;;;;;;;15.41;64.20;102759.44;5006197;28;102684;-49
2021/10/26 00:11:39;;;;;;;29.15;19.65;;;;;;;15.41;64.09;102753.97;5008083;28;102294;-47
2021/10/26 00:14:07;;;;;;;26.55;19.00;;;;;;;15.40;64.01;102753.13;5007110;28;103924;-47
2021/10/26 00:16:34;;;;;;;25.33;19.27;;;;;;;15.40;64.46;102744.91;4999921;28;102269;-48
2021/10/26 00:19:00;;;;;;;27.98;20.33;;;;;;;15.41;64.18;102746.56;4998950;28;102283;-49
2021/10/26 00:21:26;;;;;;;25.38;18.80;;;;;;;15.40;64.19;102744.91;5006602;28;102369;-49
2021/10/26 00:23:53;;;;;;;26.88;19.13;;;;;;;15.41;64.20;102754.78;5002813;28;104084;-48
2021/10/26 00:26:19;;;;;;;28.63;19.75;;;;;;;15.39;64.07;102743.22;5005322;28;102526;-48
2021/10/26 00:28:46;;;;;;;27.42;19.58;;;;;;;15.41;64.31;102746.56;5001072;28;104912;-47
2021/10/26 00:31:14;;;;;;;26.00;18.52;;;;;;;15.41;64.20;102738.31;5005240;28;102526;-48
2021/10/26 00:33:41;;;;;;;30.53;21.23;;;;;;;15.41;63.87;102741.06;5001196;28;103707;-48
2021/10/26 00:36:08;;;;;;;23.88;18.08;;;;;;;15.39;64.26;102729.50;5000948;28;102532;-48
2021/10/26 00:38:34;;;;;;;26.63;19.02;;;;;;;15.39;64.37;102729.50;5002228;28;103298;-48
2021/10/26 00:41:02;;;;;;;27.83;19.52;;;;;;;15.40;64.06;102731.19;5009251;28;102537;-47
2021/10/26 00:43:28;;;;;;;27.60;18.95;;;;;;;15.38;63.93;102723.19;5003489;28;102766;-49
2021/10/26 00:45:55;;;;;;;24.10;18.27;;;;;;;15.39;64.21;102727.59;4998630;28;102041;-48
2021/10/26 00:48:23;;;;;;;27.73;19.75;;;;;;;15.39;64.11;102724.00;5004035;28;102375;-48
2021/10/26 00:50:50;;;;;;;30.67;20.03;;;;;;;15.39;64.48;102733.06;5010494;28;103714;-49
2021/10/26 00:53:17;;;;;;;28.33;20.27;;;;;;;15.40;64.20;102725.69;5007273;28;104109;-48
2021/10/26 00:55:44;;;;;;;28.88;19.67;;;;;;;15.38;64.35;102723.19;5002506;28;102187;-47
2021/10/26 00:58:11;;;;;;;28.58;19.90;;;;;;;15.39;64.05;102726.75;5005541;28;103215;-51
2021/10/26 01:00:38;;;;;;;27.02;18.17;;;;;;;15.39;63.96;102732.25;5014093;28;102736;-48
2021/10/26 01:03:04;;;;;;;26.50;19.33;;;;;;;15.38;64.41;102725.94;5020973;28;103908;-48
2021/10/26 01:05:32;;;;;;;27.55;19.50;;;;;;;15.38;63.95;102731.41;5026699;28;101805;-48
2021/10/26 01:07:59;;;;;;;25.42;18.35;;;;;;;15.39;64.61;102726.75;5012725;28;102325;-48
2021/10/26 01:10:26;;;;;;;26.13;18.27;;;;;;;15.38;64.12;102731.41;5025666;28;102229;-48
2021/10/26 01:12:52;;;;;;;26.45;19.40;;;;;;;15.38;64.47;102728.69;5012457;28;103721;-49
2021/10/26 01:15:20;;;;;;;25.10;18.33;;;;;;;15.38;64.27;102736.09;5014462;28;103891;-48
2021/10/26 01:17:47;;;;;;;21.83;17.45;;;;;;;15.38;64.31;102731.41;5005523;28;102365;-48
2021/10/26 01:20:15;;;;;;;27.23;18.48;;;;;;;15.38;64.35;102725.09;5005133;28;102228;-48
2021/10/26 01:22:41;;;;;;;27.77;18.80;;;;;;;15.38;64.02;102722.38;5012312;28;103928;-48
2021/10/26 01:25:09;;;;;;;26.65;18.67;;;;;;;15.38;64.27;102725.94;5011757;28;102350;-49
2021/10/26 01:27:40;;;;;;;28.23;18.38;;;;;;;15.38;64.29;102725.09;5009018;28;102312;-48
2021/10/26 01:30:08;;;;;;;26.27;18.52;;;;;;;15.38;64.41;102719.63;5007626;28;102260;-48
2021/10/26 01:32:36;;;;;;;26.60;17.65;;;;;;;15.38;64.46;102725.09;5009121;28;103775;-47
2021/10/26 01:35:04;;;;;;;27.25;18.60;;;;;;;15.37;64.37;102713.31;5010861;28;102192;-49
2021/10/26 01:37:33;;;;;;;25.65;17.70;;;;;;;15.37;64.33;102707.81;5006889;28;102181;-47
2021/10/26 01:39:59;;;;;;;24.85;18.52;;;;;;;15.37;64.17;102707.00;5002346;28;103571;-48
2021/10/26 01:42:26;;;;;;;20.75;16.05;;;;;;;15.37;64.29;102716.06;5009041;28;104055;-48
2021/10/26 01:44:52;;;;;;;22.30;16.63;;;;;;;15.37;64.14;102707.81;5009712;28;102454;-48
2021/10/26 01:47:19;;;;;;;26.75;17.88;;;;;;;15.37;64.22;102707.00;4999769;28;102245;-47
2021/10/26 01:49:45;;;;;;;23.45;17.52;;;;;;;15.37;64.46;102707.00;5000880;28;102357;-48
2021/10/26 01:52:12;;;;;;;25.20;18.08;;;;;;;15.38;64.54;102708.66;5003665;28;104067;-47
2021/10/26 01:54:40;;;;;;;24.60;17.73;;;;;;;15.37;64.26;102707.00;5005444;28;102636;-47
2021/10/26 01:57:07;;;;;;;25.33;17.30;;;;;;;15.36;63.97;102702.56;5008999;28;102493;-48
2021/10/26 01:59:34;;;;;;;22.98;17.10;;;;;;;15.36;64.58;102699.81;5008492;28;102288;-48
2021/10/26 02:02:00;;;;;;;23.17;16.77;;;;;;;15.36;64.50;102705.31;5011722;28;103880;-48
2021/10/26 02:04:27;;;;;;;28.30;18.38;;;;;;;15.36;64.10;102705.31;5011077;28;102144;-48
2021/10/26 02:06:54;;;;;;;22.00;15.55;;;;;;;15.37;64.42;102701.50;5007158;28;102146;-48
2021/10/26 02:09:20;;;;;;;25.77;17.38;;;;;;;15.36;64.19;102702.56;5009471;28;102464;-48
2021/10/26 02:11:48;;;;;;;23.83;17.25;;;;;;;15.36;64.33;102710.81;5008401;28;103932;-49
2021/10/26 02:14:15;;;;;;;22.37;17.03;;;;;;;15.37;64.39;102707.00;5006410;27;102286;-45
2021/10/26 02:16:42;;;;;;;23.95;16.75;;;;;;;15.35;64.44;102706.41;5006609;28;102166;-47
2021/10/26 02:19:09;;;;;;;22.83;16.23;;;;;;;15.36;64.32;102708.06;5007828;28;103024;-48
2021/10/26 02:21:35;;;;;;;22.10;16.67;;;;;;;15.35;64.11;102703.66;5007581;28;104223;-47
2021/10/26 02:24:01;;;;;;;22.08;17.30;;;;;;;15.35;63.96;102698.19;5011337;28;102199;-48
2021/10/26 02:26:28;;;;;;;21.05;15.60;;;;;;;15.35;64.39;102703.66;5006666;28;102451;-47
2021/10/26 02:28:56;;;;;;;21.08;16.00;;;;;;;15.35;64.19;102696.25;5000929;28;102527;-48
2021/10/26 02:31:22;;;;;;;25.70;16.45;;;;;;;15.35;64.57;102698.19;5007930;28;103707;-47
2021/10/26 02:33:49;;;;;;;21.35;15.45;;;;;;;15.35;64.28;102698.19;5001417;28;102438;-47
2021/10/26 02:36:16;;;;;;;24.52;16.08;;;;;;;15.35;64.18;102704.50;5007655;28;102229;-48
2021/10/26 02:38:42;;;;;;;21.23;15.38;;;;;;;15.35;64.21;102703.66;5009619;28;102235;-48
2021/10/26 02:41:08;;;;;;;23.25;16.20;;;;;;;15.34;64.19;102707.50;5009728;28;102731;-49
2021/10/26 02:43:35;;;;;;;24.50;17.08;;;;;;;15.35;64.44;102703.66;5007904;28;102681;-48
2021/10/26 02:46:03;;;;;;;21.77;15.60;;;;;;;15.35;64.30;102703.66;5003521;28;102172;-48
2021/10/26 02:48:30;;;;;;;22.40;15.30;;;;;;;15.36;64.34;102705.31;5004424;28;102347;-49
2021/10/26 02:50:56;;;;;;;21.45;15.30;;;;;;;15.34;64.44;102705.59;5005044;28;103910;-48
2021/10/26 02:53:24;;;;;;;22.60;15.90;;;;;;;15.35;64.29;102703.66;5012747;28;102098;-48
2021/10/26 02:55:51;;;;;;;21.23;15.35;;;;;;;15.34;64.18;102705.59;5011876;28;101927;-49
2021/10/26 02:58:18;;;;;;;21.38;15.77;;;;;;;15.35;64.21;102703.66;5012240;28;102538;-48
2021/10/26 03:00:46;;;;;;;22.23;15.45;;;;;;;15.33;64.55;102701.19;4998362;28;103871;-48
2021/10/26 03:03:14;;;;;;;18.33;13.82;;;;;;;15.34;64.62;102702.84;5004196;28;102096;-47
2021/10/26 03:05:41;;;;;;;23.70;15.57;;;;;;;15.34;64.14;102702.00;5007250;28;102291;-50
2021/10/26 03:08:07;;;;;;;19.90;14.57;;;;;;;15.35;64.45;102700.91;5004414;28;102290;-48
2021/10/26 03:10:34;;;;;;;20.80;14.38;;;;;;;15.34;64.20;102704.75;5004805;27;103899;-48
2021/10/26 03:13:00;;;;;;;23.35;16.25;;;;;;;15.33;64.45;102703.94;4999661;28;102298;-48
2021/10/26 03:15:28;;;;;;;20.08;15.13;;;;;;;15.33;64.45;102700.38;5008663;28;103063;-47
2021/10/26 03:17:54;;;;;;;20.83;15.30;;;;;;;15.33;64.09;102694.88;5013170;28;102159;-48
2021/10/26 03:20:22;;;;;;;21.00;14.45;;;;;;;15.33;64.45;102687.47;5009035;28;103989;-48
2021/10/26 03:22:49;;;;;;;19.60;14.50;;;;;;;15.34;64.48;102696.53;5001205;28;102332;-48
2021/10/26 03:25:16;;;;;;;19.17;14.93;;;;;;;15.34;64.37;102696.53;5008659;28;102429;-48
2021/10/26 03:27:43;;;;;;;21.00;15.18;;;;;;;15.33;64.14;102701.19;5013649;28;103327;-48
2021/10/26 03:30:11;;;;;;;19.05;13.63;;;;;;;15.33;64.39;102694.88;5011950;28;103952;-48
2021/10/26 03:32:37;;;;;;;21.02;14.13;;;;;;;15.33;64.44;102689.38;5012125;27;102555;-48
2021/10/26 03:35:04;;;;;;;20.02;14.00;;;;;;;15.34;64.32;102696.53;5005878;28;103708;-47
2021/10/26 03:37:35;;;;;;;16.73;12.80;;;;;;;15.33;64.09;102694.88;5009028;28;102945;-47
2021/10/26 03:40:02;;;;;;;19.65;13.52;;;;;;;15.33;64.45;102694.88;5009602;28;103652;-47
2021/10/26 03:42:28;;;;;;;20.00;14.20;;;;;;;15.33;64.17;102689.38;5006500;28;102530;-47
2021/10/26 03:44:55;;;;;;;20.52;14.32;;;;;;;15.33;64.46;102689.38;5001270;28;103885;-48
2021/10/26 03:47:21;;;;;;;17.60;13.23;;;;;;;15.32;64.04;102687.72;5009965;28;102811;-49
2021/10/26 03:49:48;;;;;;;19.40;14.10;;;;;;;15.33;64.26;102689.38;4998292;28;103937;-48
2021/10/26 03:52:15;;;;;;;18.05;14.23;;;;;;;15.33;64.45;102689.38;5002084;27;102908;-48
2021/10/26 03:54:42;;;;;;;20.48;13.70;;;;;;;15.32;64.26;102690.47;4999912;28;102537;-48
2021/10/26 03:57:11;;;;;;;19.38;13.98;;;;;;;15.32;64.48;102684.97;5010534;28;102662;-48
2021/10/26 03:59:39;;;;;;;20.05;13.82;;;;;;;15.32;64.58;102688.53;5010514;28;103818;-48
2021/10/26 04:02:19;;;;;;;17.50;13.10;;;;;;;15.32;64.28;102680.31;5009230;28;102453;-48
2021/10/26 04:04:46;;;;;;;19.67;12.90;;;;;;;15.32;64.47;102682.22;4998354;28;102065;-48
2021/10/26 04:07:13;;;;;;;16.60;13.05;;;;;;;15.32;64.56;102682.22;5007769;27;102259;-47
2021/10/26 04:09:52;;;;;;;17.95;12.95;;;;;;;15.33;64.34;102678.41;5005236;28;103740;-47
2021/10/26 04:12:26;;;;;;;;;;;;;;;15.33;64.75;102675.69;5007573;28;101958;-48
2021/10/26 04:14:54;;;;;;;18.00;13.32;;;;;;;15.32;64.44;102672.06;5006916;28;102219;-47
2021/10/26 04:17:22;;;;;;;18.10;13.02;;;;;;;15.31;64.25;102673.16;5003125;28;102382;-48
2021/10/26 04:19:49;;;;;;;15.80;11.85;;;;;;;15.31;64.15;102675.91;4999324;28;104087;-48
2021/10/26 04:22:16;;;;;;;16.08;13.52;;;;;;;15.31;64.23;102677.84;5002616;28;102413;-48
2021/10/26 04:24:44;;;;;;;17.10;12.40;;;;;;;15.31;64.54;102669.59;5006771;28;102253;-48
2021/10/26 04:27:10;;;;;;;16.77;12.27;;;;;;;15.31;64.45;102675.09;5006035;28;102517;-47
2021/10/26 04:29:39;;;;;;;15.43;12.30;;;;;;;15.32;64.18;102676.75;5002834;28;103726;-47
2021/10/26 04:32:06;;;;;;;;;;;;;;;15.32;64.61;102671.25;5003447;28;102105;-49
2021/10/26 04:34:33;;;;;;;17.40;12.95;;;;;;;15.31;64.14;102669.59;5002870;28;102324;-47
2021/10/26 04:37:00;;;;;;;18.50;12.43;;;;;;;15.31;64.57;102670.44;4998657;28;102389;-47
2021/10/26 04:39:26;;;;;;;17.38;12.00;;;;;;;15.30;64.57;102677.00;4999606;28;103856;-47
2021/10/26 04:41:53;;;;;;;16.00;11.95;;;;;;;15.32;64.63;102674.00;5003138;28;102815;-48
2021/10/26 04:44:19;;;;;;;15.60;11.25;;;;;;;15.32;64.63;102666.59;4997402;28;102225;-48
2021/10/26 04:46:47;;;;;;;14.60;11.90;;;;;;;15.31;64.59;102669.59;5008137;28;102600;-48
2021/10/26 04:49:13;;;;;;;18.00;12.02;;;;;;;15.30;64.53;102674.25;4988758;28;104222;-48
2021/10/26 04:51:41;;;;;;;15.13;11.48;;;;;;;15.31;64.64;102675.09;4984231;28;102572;-49
2021/10/26 04:54:08;;;;;;;16.55;11.40;;;;;;;15.31;64.24;102672.34;4993748;28;102393;-48
2021/10/26 04:56:35;;;;;;;18.33;12.10;;;;;;;15.31;64.71;102675.91;4988877;28;102394;-47
2021/10/26 04:59:01;;;;;;;16.65;11.75;;;;;;;15.30;64.24;102681.66;4988223;28;104069;-48
2021/10/26 05:01:28;;;;;;;17.00;11.82;;;;;;;15.31;64.44;102686.88;4996137;28;103636;-48
2021/10/26 05:03:56;;;;;;;15.55;11.68;;;;;;;15.31;64.33;102686.06;5004109;28;102738;-48
2021/10/26 05:06:22;;;;;;;17.33;12.00;;;;;;;15.32;64.26;102684.97;4993805;28;102690;-47
2021/10/26 05:08:52;;;;;;;16.08;11.80;;;;;;;15.30;64.64;102678.94;4993478;28;103762;-48
2021/10/26 05:11:19;;;;;;;17.00;11.45;;;;;;;15.31;64.50;102686.88;5006662;28;102182;-47
2021/10/26 05:13:46;;;;;;;15.80;11.68;;;;;;;15.31;64.70;102686.06;4993706;28;102559;-48
2021/10/26 05:16:14;;;;;;;15.38;11.10;;;;;;;15.32;64.37;102687.72;5002119;28;102326;-47
2021/10/26 05:18:50;;;;;;;16.20;11.45;;;;;;;15.32;64.37;102687.72;4992128;28;104288;-48
2021/10/26 05:21:21;;;;;;;13.65;10.98;;;;;;;15.32;64.46;102687.72;5003590;28;102577;-47
2021/10/26 05:23:48;;;;;;;13.95;11.45;;;;;;;15.31;64.33;102681.41;5008745;28;102523;-47
2021/10/26 05:26:15;;;;;;;14.70;10.95;;;;;;;15.32;64.77;102682.22;5009933;28;102233;-48
2021/10/26 05:28:42;;;;;;;15.90;10.88;;;;;;;15.32;64.39;102682.22;5009941;28;103864;-47
2021/10/26 05:31:09;;;;;;;15.60;11.05;;;;;;;15.31;64.47;102680.56;5006206;28;103096;-47
2021/10/26 05:33:38;;;;;;;16.13;11.80;;;;;;;15.30;64.27;102677.00;5013209;28;101996;-52
2021/10/26 05:36:06;;;;;;;14.45;11.25;;;;;;;15.32;64.28;102682.22;5010455;28;102178;-48
2021/10/26 05:38:34;;;;;;;15.23;11.77;;;;;;;15.31;64.72;102686.88;5004621;28;103851;-51
2021/10/26 05:41:02;;;;;;;15.63;11.27;;;;;;;15.31;64.37;102681.41;5020518;28;102641;-47
2021/10/26 05:43:29;;;;;;;17.02;11.13;;;;;;;15.32;64.36;102687.72;5018115;28;102165;-47
2021/10/26 05:45:56;;;;;;;14.45;10.85;;;;;;;15.32;64.49;102687.72;5021960;28;102227;-48
2021/10/26 05:48:23;;;;;;;14.82;11.07;;;;;;;15.31;64.41;102686.88;5015844;28;104110;-48
2021/10/26 05:50:49;;;;;;;15.95;11.55;;;;;;;15.31;64.54;102684.16;5011018;28;102836;-48
2021/10/26 05:53:16;;;;;;;14.45;10.88;;;;;;;15.30;64.58;102682.50;5010217;28;102768;-48
2021/10/26 05:55:44;;;;;;;16.63;11.20;;;;;;;15.32;64.58;102687.72;5003158;28;102253;-48
2021/10/26 05:58:11;;;;;;;13.93;10.13;;;;;;;15.31;64.39;102686.06;5012975;28;102811;-48
2021/10/26 06:00:38;;;;;;;13.73;11.05;;;;;;;15.31;64.31;102694.28;5013371;28;102178;-50
2021/10/26 06:03:06;;;;;;;13.60;10.80;;;;;;;15.30;64.54;102695.38;5008916;28;102567;-47
2021/10/26 06:05:33;;;;;;;15.17;10.50;;;;;;;15.31;64.70;102691.53;5006052;28;102857;-47
2021/10/26 06:07:59;;;;;;;12.95;10.32;;;;;;;15.31;64.44;102686.06;5007232;28;104036;-50
2021/10/26 06:10:27;;;;;;;12.90;9.98;;;;;;;15.31;64.57;102688.81;5008767;28;102004;-48
2021/10/26 06:12:58;;;;;;;14.40;10.57;;;;;;;15.31;64.78;102691.53;5007421;28;102880;-47
2021/10/26 06:15:25;;;;;;;14.43;10.93;;;;;;;15.31;64.40;102697.03;4996796;28;102752;-48
2021/10/26 06:17:51;;;;;;;13.55;10.48;;;;;;;15.30;64.76;102696.22;4995946;28;104102;-48
2021/10/26 06:20:18;;;;;;;14.75;10.93;;;;;;;15.30;64.53;102695.38;5008747;28;102423;-48
2021/10/26 06:22:44;;;;;;;14.45;10.13;;;;;;;15.30;64.34;102687.16;5001158;28;102362;-47
2021/10/26 06:25:11;;;;;;;13.98;10.20;;;;;;;15.30;64.79;102687.97;5009958;28;102772;-48
2021/10/26 06:27:38;;;;;;;12.77;9.95;;;;;;;15.30;64.43;102692.63;5008359;28;103148;-47
2021/10/26 06:30:07;;;;;;;12.25;8.98;;;;;;;15.31;64.74;102694.28;5012473;28;102764;-48
2021/10/26 06:32:33;;;;;;;15.43;10.55;;;;;;;15.31;64.68;102691.53;5021084;28;102304;-48
2021/10/26 06:35:00;;;;;;;11.30;9.68;;;;;;;15.30;64.81;102684.41;5016229;28;102283;-48
2021/10/26 06:37:27;;;;;;;12.35;9.50;;;;;;;15.31;64.61;102694.28;5010990;28;103679;-49
2021/10/26 06:39:56;;;;;;;12.93;9.45;;;;;;;15.29;64.84;102679.97;5004427;28;103307;-48
2021/10/26 06:42:22;;;;;;;;;;;;;;;15.30;64.50;102695.38;5003558;28;102418;-49
2021/10/26 06:44:49;;;;;;;11.75;9.48;;;;;;;15.30;64.71;102687.16;5004100;28;102400;-48
2021/10/26 06:47:18;;;;;;;11.75;9.38;;;;;;;15.29;64.72;102694.56;5006340;28;103968;-48
2021/10/26 06:49:46;;;;;;;10.63;8.50;;;;;;;15.30;64.78;102684.41;5009865;28;103223;-49
2021/10/26 06:52:13;;;;;;;13.25;9.60;;;;;;;15.29;64.70;102683.59;5008259;28;102080;-48
2021/10/26 06:54:40;;;;;;;13.15;8.25;;;;;;;15.28;64.40;102687.38;5005916;28;102675;-48
2021/10/26 06:57:06;;;;;;;11.43;8.27;;;;;;;15.28;64.54;102686.56;4999822;28;103561;-48
2021/10/26 06:59:34;;;;;;;9.88;8.23;;;;;;;15.29;64.65;102682.72;5007939;28;102483;-48
2021/10/26 07:02:00;;;;;;;11.48;8.43;;;;;;;15.28;64.51;102683.81;5002057;28;102126;-49
2021/10/26 07:04:28;;;;;;;10.63;7.53;;;;;;;15.27;64.58;102680.25;5007482;28;103165;-48
2021/10/26 07:06:54;;;;;;;9.75;7.55;;;;;;;15.28;64.71;102681.09;5002761;28;103985;-48
2021/10/26 07:09:21;;;;;;;9.65;7.20;;;;;;;15.28;64.71;102675.59;5007204;28;103076;-48
2021/10/26 07:11:48;;;;;;;9.57;7.75;;;;;;;15.27;64.66;102679.44;4999048;28;104421;-48
2021/10/26 07:14:20;;;;;;;10.10;7.25;;;;;;;15.27;64.39;102679.44;5005597;28;102408;-49
2021/10/26 07:16:47;;;;;;;12.32;7.55;;;;;;;15.28;64.57;102681.09;5001872;28;102685;-48
2021/10/26 07:19:13;;;;;;;9.35;6.90;;;;;;;15.27;64.42;102679.44;5003293;28;102278;-48
2021/10/26 07:21:42;;;;;;;8.95;6.68;;;;;;;15.26;64.85;102672.28;5004087;28;102314;-48
2021/10/26 07:24:10;;;;;;;9.27;6.00;;;;;;;15.27;64.50;102671.19;5008930;28;102190;-48
2021/10/26 07:26:36;;;;;;;9.48;6.95;;;;;;;15.26;64.75;102677.78;4998462;28;103829;-48
2021/10/26 07:29:03;;;;;;;7.68;5.97;;;;;;;15.26;64.37;102675.03;5008509;28;102215;-49
2021/10/26 07:31:30;;;;;;;7.15;6.03;;;;;;;15.26;64.49;102683.28;5008695;28;102831;-48
2021/10/26 07:34:00;;;;;;;7.50;5.85;;;;;;;15.25;64.25;102687.06;5010271;28;102246;-49
2021/10/26 07:36:32;;;;;;;8.25;6.53;;;;;;;15.24;64.49;102675.28;5007448;28;103693;-48
2021/10/26 07:39:04;;;;;;;8.18;6.18;;;;;;;15.24;64.64;102669.78;5011502;28;102255;-48
2021/10/26 07:41:31;;;;;;;6.75;5.28;;;;;;;15.23;64.67;102673.63;5004826;28;102415;-48
2021/10/26 07:43:57;;;;;;;7.88;5.78;;;;;;;15.24;64.68;102679.94;5003534;28;102277;-49
2021/10/26 07:46:24;;;;;;;8.07;5.28;;;;;;;15.23;64.43;102684.59;5005963;28;104048;-48
2021/10/26 07:48:50;;;;;;;6.70;5.35;;;;;;;15.24;64.36;102685.41;5010648;28;102288;-48
2021/10/26 07:51:17;;;;;;;8.43;5.38;;;;;;;15.23;64.67;102675.53;5006772;28;102350;-48
2021/10/26 07:53:44;;;;;;;7.65;5.47;;;;;;;15.22;64.65;102676.59;5005269;28;102328;-47
2021/10/26 07:56:12;;;;;;;7.85;5.10;;;;;;;15.22;64.36;102679.34;5001167;28;104006;-48
2021/10/26 07:58:40;;;;;;;6.05;4.97;;;;;;;15.21;64.66;102674.94;4998444;28;102463;-48
2021/10/26 08:01:07;;;;;;;5.88;4.97;;;;;;;15.21;64.58;102677.69;5003658;28;102969;-48
2021/10/26 08:03:34;;;;;;;6.32;4.63;;;;;;;15.20;64.46;102676.03;5007867;28;102280;-48
2021/10/26 08:06:02;;;;;;;6.45;4.90;;;;;;;15.21;64.40;102677.69;4999109;28;103903;-48
2021/10/26 08:08:29;;;;;;;6.22;5.05;;;;;;;15.21;64.35;102680.44;4997392;28;102194;-48
2021/10/26 08:10:55;;;;;;;5.10;4.28;;;;;;;15.20;64.32;102685.09;5006269;28;102295;-48
2021/10/26 08:13:23;;;;;;;6.03;4.22;;;;;;;15.20;64.69;102681.53;5008162;28;102306;-47
2021/10/26 08:15:51;;;;;;;5.75;4.32;;;;;;;15.19;64.52;102672.47;5005168;28;103943;-48
2021/10/26 08:18:18;;;;;;;5.72;4.60;;;;;;;15.20;64.51;102681.53;5001590;28;102812;-49
2021/10/26 08:20:48;;;;;;;6.20;4.05;;;;;;;15.20;64.66;102684.28;5005482;28;104118;-48
2021/10/26 08:23:16;;;;;;;4.93;4.20;;;;;;;15.19;64.44;102677.97;5012549;28;103562;-48
2021/10/26 08:25:47;;;;;;;5.07;4.10;;;;;;;15.19;64.58;102677.97;5001965;28;104035;-48
2021/10/26 08:28:16;;;;;;;6.60;4.10;;;;;;;15.19;64.42;102682.63;5002503;28;102737;-48
2021/10/26 08:30:54;;;;;;;4.93;3.60;;;;;;;15.19;64.64;102682.63;5003547;28;102035;-49
2021/10/26 08:33:52;;;;;;;5.83;4.27;;;;;;;15.19;64.35;102686.19;5008884;28;103426;-48
2021/10/26 08:36:11;;;;;;;5.80;4.25;;;;;;;15.19;64.62;102690.84;5006923;28;108055;-48
2021/10/26 08:38:38;;;;;;;5.68;4.45;;;;;;;15.18;64.62;102681.78;5011185;28;102212;-49
2021/10/26 08:41:06;;;;;;;5.50;4.22;;;;;;;15.18;64.39;102686.44;5006313;28;102577;-49
2021/10/26 08:43:33;;;;;;;5.32;3.90;;;;;;;15.18;64.41;102686.44;5006149;28;102667;-48
2021/10/26 08:46:06;;;;;;;6.22;4.07;;;;;;;15.18;64.41;102680.94;5004320;28;104041;-48
2021/10/26 08:48:39;;;;;;;4.75;3.58;;;;;;;15.17;64.53;102676.56;5006851;28;102806;-49
2021/10/26 08:51:07;;;;;;;5.68;3.78;;;;;;;15.17;64.26;102684.78;5003068;27;102270;-50
2021/10/26 08:53:33;;;;;;;8.70;3.60;;;;;;;15.16;64.28;102688.63;5006757;28;102371;-64
2021/10/26 08:56:03;;;;;;;8.15;3.33;;;;;;;15.13;63.67;102690.78;5002333;28;103860;-64
2021/10/26 08:58:31;;;;;;;11.13;2.83;;;;;;;15.06;63.88;102673.66;4999731;28;102186;-67
2021/10/26 09:00:59;;;;;;;19.83;4.23;;;;;;;15.02;63.23;102678.00;4999889;28;102450;-67
2021/10/26 09:03:32;;;;;;;27.65;4.68;;;;;;;14.98;63.00;102665.88;5006699;28;102280;-67
2021/10/26 09:05:58;;;;;;;4.80;3.28;;;;;;;14.95;63.32;102666.41;4999012;28;104052;-66
2021/10/26 09:08:26;;;;;;;5.72;3.10;;;;;;;14.95;63.75;102663.66;4997734;27;102584;-68
2021/10/26 09:10:56;;;;;;;4.75;2.88;;;;;;;14.97;63.84;102658.75;5003979;28;102283;-67
2021/10/26 09:16:42;;;;;;;4.18;3.20;;;;;;;14.98;63.67;102654.94;5000166;28;103766;-66
2021/10/26 09:19:12;;;;;;;3.85;3.20;;;;;;;14.99;63.83;102656.56;5001247;28;102271;-68
2021/10/26 09:21:39;;;;;;;7.40;3.50;;;;;;;14.98;63.82;102657.66;5001582;28;102866;-67
2021/10/26 09:24:08;;;;;;;4.50;3.45;;;;;;;14.97;63.85;102653.28;5002993;28;102592;-66
2021/10/26 09:26:45;;;;;;;5.07;3.00;;;;;;;14.97;63.99;102641.47;5001265;28;104026;-67
2021/10/26 09:29:14;;;;;;;5.30;3.30;;;;;;;14.96;64.09;102643.38;5000192;28;102132;-67
2021/10/26 09:31:41;;;;;;;5.10;3.28;;;;;;;14.97;63.62;102638.75;5006035;28;102161;-66
2021/10/26 09:34:12;;;;;;;3.67;3.10;;;;;;;14.96;63.21;102639.81;5006043;28;102429;-67
2021/10/26 09:36:42;;;;;;;6.28;3.33;;;;;;;14.95;63.45;102636.25;5005326;28;104140;-67
2021/10/26 09:39:14;;;;;;;3.78;3.20;;;;;;;14.95;63.42;102632.66;5003237;28;102359;-68
2021/10/26 09:42:06;;;;;;;4.28;3.17;;;;;;;14.95;63.57;102630.75;4999904;28;102439;-68
2021/10/26 09:44:38;;;;;;;4.50;2.92;;;;;;;14.94;63.33;102626.38;5006846;28;102298;-68
2021/10/26 09:47:09;;;;;;;5.15;2.72;;;;;;;14.95;63.07;102622.53;4999419;28;104040;-68
2021/10/26 09:49:38;;;;;;;4.72;3.40;;;;;;;14.95;63.56;102622.53;4996587;28;102427;-68
2021/10/26 09:52:14;;;;;;;4.55;3.30;;;;;;;14.95;63.00;102621.69;5001457;28;102596;-68
2021/10/26 09:54:42;;;;;;;4.28;3.25;;;;;;;14.96;63.21;102624.19;5004478;28;102195;-68
2021/10/26 09:57:09;;;;;;;5.10;3.20;;;;;;;14.96;63.13;102617.88;4997850;28;104191;-67
2021/10/26 09:59:37;;;;;;;4.13;3.20;;;;;;;14.96;62.94;102623.34;5007947;28;102331;-67
2021/10/26 10:02:03;;;;;;;4.43;2.80;;;;;;;14.96;63.09;102617.88;5009559;28;102674;-67
2021/10/26 10:04:33;;;;;;;3.35;2.83;;;;;;;14.96;63.19;102612.38;5006205;28;102623;-68
2021/10/26 10:07:01;;;;;;;4.82;3.08;;;;;;;14.96;63.02;102609.66;5002430;28;103973;-68
2021/10/26 10:09:29;;;;;;;4.20;3.40;;;;;;;14.97;63.33;102603.94;5010756;28;102790;-67
2021/10/26 10:12:04;;;;;;;3.38;2.88;;;;;;;14.98;62.85;102604.75;5004994;28;102404;-67
2021/10/26 10:14:33;;;;;;;3.83;3.25;;;;;;;14.98;62.88;102600.09;5008509;27;102500;-67
2021/10/26 10:17:03;;;;;;;4.30;3.10;;;;;;;15.00;63.13;102608.03;5002564;28;103930;-67
2021/10/26 10:19:30;;;;;;;4.63;3.20;;;;;;;15.00;63.29;102597.94;5001959;28;102373;-68
2021/10/26 10:21:56;;;;;;;3.58;2.65;;;;;;;15.00;63.18;102597.94;5004249;28;102333;-67
2021/10/26 10:24:28;;;;;;;4.15;3.28;;;;;;;15.00;63.04;102603.41;5005961;28;102432;-68
2021/10/26 10:26:56;;;;;;;2.78;2.50;;;;;;;15.00;63.25;102589.72;5006198;28;103901;-67
2021/10/26 10:29:24;;;;;;;5.03;3.60;;;;;;;15.02;63.03;102586.69;5005127;28;102037;-68
2021/10/26 10:31:50;;;;;;;3.28;2.97;;;;;;;15.03;62.96;102591.91;5006691;27;102246;-67
2021/10/26 10:34:19;;;;;;;3.75;2.90;;;;;;;15.02;63.20;102581.22;5022881;28;102602;-68
2021/10/26 10:36:46;;;;;;;3.70;2.70;;;;;;;15.03;63.09;102575.47;5012526;28;104059;-69
2021/10/26 10:39:14;;;;;;;3.38;2.88;;;;;;;15.03;62.89;102586.44;5009028;28;104712;-67
2021/10/26 10:41:43;;;;;;;4.82;3.05;;;;;;;15.03;62.95;102574.63;5009067;28;103981;-68
2021/10/26 10:44:34;;;;;;;7.63;3.47;;;;;;;15.03;62.83;102572.72;5005343;28;102419;-67
2021/10/26 10:47:01;;;;;;;3.35;2.80;;;;;;;15.03;63.39;102561.75;5005008;28;108227;-67
2021/10/26 10:49:49;;;;;;;3.67;3.00;;;;;;;15.04;63.21;102565.34;5010052;28;102480;-68
2021/10/26 10:52:21;;;;;;;3.83;2.97;;;;;;;15.04;63.27;102566.19;5005450;28;102027;-67
2021/10/26 10:54:49;;;;;;;6.18;3.50;;;;;;;15.04;63.16;102568.91;5006114;28;102238;-67
2021/10/26 10:57:20;;;;;;;4.55;3.45;;;;;;;15.05;63.30;102564.25;5001201;28;103975;-68
2021/10/26 10:59:48;;;;;;;3.80;3.25;;;;;;;15.05;63.03;102556.03;5006036;28;102283;-67
2021/10/26 11:02:19;;;;;;;3.60;2.92;;;;;;;15.06;62.93;102547.53;4998941;28;103781;-68
2021/10/26 11:04:46;;;;;;;5.57;3.00;;;;;;;15.05;63.21;102561.50;5003643;28;103560;-65
2021/10/26 11:07:15;;;;;;;3.25;2.95;;;;;;;15.06;63.42;102555.75;4997277;28;104711;-66
2021/10/26 11:09:50;;;;;;;4.05;3.00;;;;;;;15.07;62.95;102548.34;4999966;28;102827;-68
2021/10/26 11:12:29;;;;;;;4.03;3.22;;;;;;;15.06;63.32;102539.31;5004351;28;102263;-68
2021/10/26 11:14:57;;;;;;;3.80;3.08;;;;;;;15.07;63.12;102541.00;4999665;28;102429;-67
2021/10/26 11:17:57;;;;;;;4.05;3.30;;;;;;;15.06;63.37;102544.78;4997384;28;103851;-68